sensor_id;sensor_type;location;lat;lon;timestamp;pressure;altitude;pressure_sealevel;temperature;humidity
42771;BME280;28426;42.872;25.314;2024-03-22T00:01:10;97190.41;;;6.21;53.01
42771;BME280;28426;42.872;25.314;2024-03-22T00:03:37;97195.69;;;5.58;55.79
42771;BME280;28426;42.872;25.314;2024-03-22T00:06:04;97193.16;;;5.20;59.41
42771;BME280;28426;42.872;25.314;2024-03-22T00:08:31;97184.03;;;5.04;60.54
42771;BME280;28426;42.872;25.314;2024-03-22T00:10:57;97185.81;;;4.86;61.14
42771;BME280;28426;42.872;25.314;2024-03-22T00:13:24;97176.97;;;4.67;61.70
42771;BME280;28426;42.872;25.314;2024-03-22T00:15:53;97187.97;;;4.62;61.95
42771;BME280;28426;42.872;25.314;2024-03-22T00:18:20;97179.63;;;4.67;62.19
42771;BME280;28426;42.872;25.314;2024-03-22T00:20:46;97179.09;;;4.63;61.28
42771;BME280;28426;42.872;25.314;2024-03-22T00:23:13;97187.06;;;4.53;64.37
42771;BME280;28426;42.872;25.314;2024-03-22T00:25:40;97188.16;;;4.61;63.23
42771;BME280;28426;42.872;25.314;2024-03-22T00:28:06;97190.88;;;4.69;62.22
42771;BME280;28426;42.872;25.314;2024-03-22T00:30:33;97189.81;;;4.62;62.16
42771;BME280;28426;42.872;25.314;2024-03-22T00:33:02;97199.34;;;4.44;63.32
42771;BME280;28426;42.872;25.314;2024-03-22T00:35:29;97192.69;;;4.30;64.54
42771;BME280;28426;42.872;25.314;2024-03-22T00:37:55;97192.66;;;4.40;64.00
42771;BME280;28426;42.872;25.314;2024-03-22T00:40:22;97197.19;;;4.58;63.37
42771;BME280;28426;42.872;25.314;2024-03-22T00:42:49;97189.78;;;4.71;62.90
42771;BME280;28426;42.872;25.314;2024-03-22T00:45:15;97185.94;;;4.84;62.48
42771;BME280;28426;42.872;25.314;2024-03-22T00:47:42;97188.25;;;4.97;62.28
42771;BME280;28426;42.872;25.314;2024-03-22T00:50:11;97202.94;;;5.09;61.47
42771;BME280;28426;42.872;25.314;2024-03-22T00:52:38;97196.59;;;5.20;61.36
42771;BME280;28426;42.872;25.314;2024-03-22T00:55:05;97193.06;;;5.30;61.06
42771;BME280;28426;42.872;25.314;2024-03-22T00:57:32;97194.00;;;5.39;60.44
42771;BME280;28426;42.872;25.314;2024-03-22T00:59:59;97192.41;;;5.46;60.58
42771;BME280;28426;42.872;25.314;2024-03-22T01:02:25;97194.31;;;5.54;60.29
42771;BME280;28426;42.872;25.314;2024-03-22T01:04:52;97186.75;;;5.59;60.05
42771;BME280;28426;42.872;25.314;2024-03-22T01:07:21;97190.44;;;5.66;59.51
42771;BME280;28426;42.872;25.314;2024-03-22T01:09:48;97188.34;;;5.70;59.61
42771;BME280;28426;42.872;25.314;2024-03-22T01:12:17;97191.66;;;5.72;59.15
42771;BME280;28426;42.872;25.314;2024-03-22T01:14:44;97189.69;;;5.74;58.79
42771;BME280;28426;42.872;25.314;2024-03-22T01:17:10;97180.75;;;5.75;58.82
42771;BME280;28426;42.872;25.314;2024-03-22T01:19:37;97180.63;;;5.76;58.77
42771;BME280;28426;42.872;25.314;2024-03-22T01:22:04;97178.78;;;5.77;58.71
42771;BME280;28426;42.872;25.314;2024-03-22T01:24:33;97183.13;;;5.78;58.77
42771;BME280;28426;42.872;25.314;2024-03-22T01:27:00;97180.47;;;5.78;58.79
42771;BME280;28426;42.872;25.314;2024-03-22T01:29:26;97182.94;;;5.80;58.37
42771;BME280;28426;42.872;25.314;2024-03-22T01:31:53;97184.63;;;5.81;58.57
42771;BME280;28426;42.872;25.314;2024-03-22T01:34:20;97189.78;;;5.82;58.48
42771;BME280;28426;42.872;25.314;2024-03-22T01:36:47;97183.50;;;5.83;58.50
42771;BME280;28426;42.872;25.314;2024-03-22T01:39:13;97186.94;;;5.84;58.31
42771;BME280;28426;42.872;25.314;2024-03-22T01:41:43;97194.75;;;5.85;58.44
42771;BME280;28426;42.872;25.314;2024-03-22T01:44:10;97190.28;;;5.86;58.17
42771;BME280;28426;42.872;25.314;2024-03-22T01:46:36;97188.47;;;5.86;58.39
42771;BME280;28426;42.872;25.314;2024-03-22T01:49:03;97186.81;;;5.85;58.40
42771;BME280;28426;42.872;25.314;2024-03-22T01:51:30;97190.16;;;5.87;58.33
42771;BME280;28426;42.872;25.314;2024-03-22T01:53:57;97189.28;;;5.87;58.46
42771;BME280;28426;42.872;25.314;2024-03-22T01:56:25;97190.28;;;5.86;58.23
42771;BME280;28426;42.872;25.314;2024-03-22T01:58:55;97190.44;;;5.84;58.25
42771;BME280;28426;42.872;25.314;2024-03-22T02:01:23;97188.78;;;5.83;58.21
42771;BME280;28426;42.872;25.314;2024-03-22T02:03:50;97188.09;;;5.81;58.21
42771;BME280;28426;42.872;25.314;2024-03-22T02:06:16;97197.16;;;5.79;58.13
42771;BME280;28426;42.872;25.314;2024-03-22T02:08:43;97192.19;;;5.75;58.04
42771;BME280;28426;42.872;25.314;2024-03-22T02:11:10;97194.16;;;5.73;58.17
42771;BME280;28426;42.872;25.314;2024-03-22T02:13:36;97188.34;;;5.70;58.04
42771;BME280;28426;42.872;25.314;2024-03-22T02:16:06;97178.34;;;5.63;58.15
42771;BME280;28426;42.872;25.314;2024-03-22T02:18:33;97184.09;;;5.59;58.17
42771;BME280;28426;42.872;25.314;2024-03-22T02:20:59;97188.19;;;5.53;58.11
42771;BME280;28426;42.872;25.314;2024-03-22T02:23:32;97193.38;;;5.45;58.26
42771;BME280;28426;42.872;25.314;2024-03-22T02:25:59;97200.94;;;5.40;58.23
42771;BME280;28426;42.872;25.314;2024-03-22T02:28:25;97202.53;;;5.32;58.31
42771;BME280;28426;42.872;25.314;2024-03-22T02:30:52;97191.72;;;5.26;58.81
42771;BME280;28426;42.872;25.314;2024-03-22T02:33:19;97193.97;;;5.20;58.91
42771;BME280;28426;42.872;25.314;2024-03-22T02:35:46;97192.59;;;5.16;58.88
42771;BME280;28426;42.872;25.314;2024-03-22T02:38:13;97195.69;;;5.12;58.95
42771;BME280;28426;42.872;25.314;2024-03-22T02:40:43;97197.13;;;5.06;59.47
42771;BME280;28426;42.872;25.314;2024-03-22T02:43:10;97203.81;;;5.00;59.39
42771;BME280;28426;42.872;25.314;2024-03-22T02:45:36;97200.66;;;4.96;59.56
42771;BME280;28426;42.872;25.314;2024-03-22T02:48:04;97206.38;;;4.92;59.67
42771;BME280;28426;42.872;25.314;2024-03-22T02:50:33;97198.03;;;4.87;59.63
42771;BME280;28426;42.872;25.314;2024-03-22T02:52:59;97206.44;;;4.82;59.85
42771;BME280;28426;42.872;25.314;2024-03-22T02:55:26;97205.72;;;4.80;59.77
42771;BME280;28426;42.872;25.314;2024-03-22T02:57:56;97202.53;;;4.76;59.99
42771;BME280;28426;42.872;25.314;2024-03-22T03:00:23;97208.13;;;4.73;60.23
42771;BME280;28426;42.872;25.314;2024-03-22T03:02:50;97207.72;;;4.68;60.01
42771;BME280;28426;42.872;25.314;2024-03-22T03:05:16;97212.34;;;4.66;60.40
42771;BME280;28426;42.872;25.314;2024-03-22T03:07:43;97210.09;;;4.61;60.10
42771;BME280;28426;42.872;25.314;2024-03-22T03:10:10;97212.50;;;4.54;60.26
42771;BME280;28426;42.872;25.314;2024-03-22T03:12:36;97212.09;;;4.49;60.31
42771;BME280;28426;42.872;25.314;2024-03-22T03:15:06;97213.50;;;4.43;60.31
42771;BME280;28426;42.872;25.314;2024-03-22T03:17:33;97201.72;;;4.38;60.60
42771;BME280;28426;42.872;25.314;2024-03-22T03:20:00;97211.31;;;4.29;60.14
42771;BME280;28426;42.872;25.314;2024-03-22T03:22:26;97211.06;;;4.22;60.59
42771;BME280;28426;42.872;25.314;2024-03-22T03:24:53;97212.44;;;4.16;60.45
42771;BME280;28426;42.872;25.314;2024-03-22T03:27:20;97212.19;;;4.10;60.60
42771;BME280;28426;42.872;25.314;2024-03-22T03:29:46;97212.75;;;4.03;61.13
42771;BME280;28426;42.872;25.314;2024-03-22T03:32:15;97223.03;;;3.97;60.92
42771;BME280;28426;42.872;25.314;2024-03-22T03:34:42;97221.78;;;3.91;61.23
42771;BME280;28426;42.872;25.314;2024-03-22T03:37:09;97237.91;;;3.88;61.19
42771;BME280;28426;42.872;25.314;2024-03-22T03:39:35;97227.78;;;3.83;60.62
42771;BME280;28426;42.872;25.314;2024-03-22T03:42:02;97225.84;;;3.75;60.24
42771;BME280;28426;42.872;25.314;2024-03-22T03:44:29;97227.09;;;3.71;60.16
42771;BME280;28426;42.872;25.314;2024-03-22T03:46:55;97222.06;;;3.68;59.88
42771;BME280;28426;42.872;25.314;2024-03-22T03:49:24;97231.22;;;3.64;59.86
42771;BME280;28426;42.872;25.314;2024-03-22T03:51:51;97235.84;;;3.62;60.10
42771;BME280;28426;42.872;25.314;2024-03-22T03:54:18;97230.81;;;3.59;60.21
42771;BME280;28426;42.872;25.314;2024-03-22T03:56:44;97226.66;;;3.56;60.36
42771;BME280;28426;42.872;25.314;2024-03-22T03:59:11;97241.94;;;3.52;60.18
42771;BME280;28426;42.872;25.314;2024-03-22T04:01:38;97244.72;;;3.51;59.99
42771;BME280;28426;42.872;25.314;2024-03-22T04:04:04;97228.00;;;3.40;60.01
42771;BME280;28426;42.872;25.314;2024-03-22T04:06:33;97241.78;;;3.44;59.72
42771;BME280;28426;42.872;25.314;2024-03-22T04:09:00;97251.91;;;3.39;59.88
42771;BME280;28426;42.872;25.314;2024-03-22T04:11:27;97258.41;;;3.35;59.95
42771;BME280;28426;42.872;25.314;2024-03-22T04:13:53;97260.47;;;3.31;59.86
42771;BME280;28426;42.872;25.314;2024-03-22T04:16:20;97262.97;;;3.23;59.99
42771;BME280;28426;42.872;25.314;2024-03-22T04:18:47;97270.59;;;3.16;60.12
42771;BME280;28426;42.872;25.314;2024-03-22T04:21:13;97264.31;;;3.07;60.15
42771;BME280;28426;42.872;25.314;2024-03-22T04:23:43;97272.88;;;2.99;59.98
42771;BME280;28426;42.872;25.314;2024-03-22T04:26:09;97277.97;;;2.91;60.14
42771;BME280;28426;42.872;25.314;2024-03-22T04:28:36;97280.06;;;2.87;60.41
42771;BME280;28426;42.872;25.314;2024-03-22T04:31:04;97288.34;;;2.83;60.69
42771;BME280;28426;42.872;25.314;2024-03-22T04:33:32;97277.25;;;2.79;60.95
42771;BME280;28426;42.872;25.314;2024-03-22T04:36:00;97284.56;;;2.76;60.89
42771;BME280;28426;42.872;25.314;2024-03-22T04:38:28;97288.56;;;2.70;60.59
42771;BME280;28426;42.872;25.314;2024-03-22T04:40:57;97294.09;;;2.67;60.96
42771;BME280;28426;42.872;25.314;2024-03-22T04:43:24;97292.53;;;2.64;61.09
42771;BME280;28426;42.872;25.314;2024-03-22T04:45:51;97299.75;;;2.62;61.00
42771;BME280;28426;42.872;25.314;2024-03-22T04:48:20;97307.66;;;2.62;60.95
42771;BME280;28426;42.872;25.314;2024-03-22T04:50:47;97305.03;;;2.62;60.97
42771;BME280;28426;42.872;25.314;2024-03-22T04:53:14;97303.50;;;2.59;61.37
42771;BME280;28426;42.872;25.314;2024-03-22T04:55:42;97296.53;;;2.58;60.94
42771;BME280;28426;42.872;25.314;2024-03-22T04:58:13;97299.88;;;2.60;61.50
42771;BME280;28426;42.872;25.314;2024-03-22T05:00:39;97301.44;;;2.63;61.53
42771;BME280;28426;42.872;25.314;2024-03-22T05:03:06;97296.72;;;2.67;61.35
42771;BME280;28426;42.872;25.314;2024-03-22T05:05:33;97304.94;;;2.73;61.50
42771;BME280;28426;42.872;25.314;2024-03-22T05:08:01;97299.00;;;2.81;61.67
42771;BME280;28426;42.872;25.314;2024-03-22T05:10:27;97293.09;;;2.89;61.98
42771;BME280;28426;42.872;25.314;2024-03-22T05:12:55;97303.16;;;3.05;61.78
42771;BME280;28426;42.872;25.314;2024-03-22T05:15:24;97293.34;;;3.17;61.58
42771;BME280;28426;42.872;25.314;2024-03-22T05:17:51;97303.53;;;3.32;61.53
42771;BME280;28426;42.872;25.314;2024-03-22T05:20:18;97306.75;;;3.45;61.25
42771;BME280;28426;42.872;25.314;2024-03-22T05:22:46;97295.00;;;3.59;60.70
42771;BME280;28426;42.872;25.314;2024-03-22T05:25:13;97295.16;;;3.77;61.00
42771;BME280;28426;42.872;25.314;2024-03-22T05:27:40;97292.53;;;3.97;60.78
42771;BME280;28426;42.872;25.314;2024-03-22T05:30:08;97292.25;;;4.20;60.75
42771;BME280;28426;42.872;25.314;2024-03-22T05:32:37;97296.94;;;4.46;60.56
42771;BME280;28426;42.872;25.314;2024-03-22T05:35:05;97280.22;;;4.65;59.77
42771;BME280;28426;42.872;25.314;2024-03-22T05:37:31;97294.31;;;4.94;59.56
42771;BME280;28426;42.872;25.314;2024-03-22T05:39:58;97297.13;;;5.20;59.71
42771;BME280;28426;42.872;25.314;2024-03-22T05:42:25;97297.97;;;5.49;59.17
42771;BME280;28426;42.872;25.314;2024-03-22T05:44:51;97296.97;;;5.78;58.69
42771;BME280;28426;42.872;25.314;2024-03-22T05:47:18;97292.47;;;6.07;58.46
42771;BME280;28426;42.872;25.314;2024-03-22T05:49:48;97292.59;;;6.41;58.68
42771;BME280;28426;42.872;25.314;2024-03-22T05:52:15;97296.16;;;6.77;57.99
42771;BME280;28426;42.872;25.314;2024-03-22T05:54:41;97302.69;;;7.17;57.28
42771;BME280;28426;42.872;25.314;2024-03-22T05:57:08;97300.19;;;7.59;56.84
42771;BME280;28426;42.872;25.314;2024-03-22T05:59:34;97299.97;;;8.04;56.38
42771;BME280;28426;42.872;25.314;2024-03-22T06:02:01;97308.97;;;8.53;55.47
42771;BME280;28426;42.872;25.314;2024-03-22T06:04:28;97305.28;;;9.03;54.21
42771;BME280;28426;42.872;25.314;2024-03-22T06:06:57;97301.25;;;9.56;52.96
42771;BME280;28426;42.872;25.314;2024-03-22T06:09:25;97305.69;;;10.04;51.93
42771;BME280;28426;42.872;25.314;2024-03-22T06:11:52;97300.34;;;10.51;50.84
42771;BME280;28426;42.872;25.314;2024-03-22T06:14:18;97305.59;;;10.97;49.63
42771;BME280;28426;42.872;25.314;2024-03-22T06:16:45;97307.00;;;11.38;48.24
42771;BME280;28426;42.872;25.314;2024-03-22T06:19:12;97309.16;;;11.80;47.70
42771;BME280;28426;42.872;25.314;2024-03-22T06:21:38;97319.69;;;12.19;46.27
42771;BME280;28426;42.872;25.314;2024-03-22T06:24:08;97312.09;;;12.44;45.29
42771;BME280;28426;42.872;25.314;2024-03-22T06:26:34;97316.03;;;12.70;44.47
42771;BME280;28426;42.872;25.314;2024-03-22T06:29:01;97317.00;;;12.91;43.58
42771;BME280;28426;42.872;25.314;2024-03-22T06:31:28;97325.81;;;13.13;43.26
42771;BME280;28426;42.872;25.314;2024-03-22T06:33:54;97321.88;;;13.44;42.66
42771;BME280;28426;42.872;25.314;2024-03-22T06:36:21;97325.91;;;13.62;41.37
42771;BME280;28426;42.872;25.314;2024-03-22T06:38:48;97329.69;;;13.75;40.47
42771;BME280;28426;42.872;25.314;2024-03-22T06:41:17;97330.31;;;13.77;40.06
42771;BME280;28426;42.872;25.314;2024-03-22T06:43:44;97332.03;;;13.91;39.90
42771;BME280;28426;42.872;25.314;2024-03-22T06:46:11;97332.47;;;14.08;39.29
42771;BME280;28426;42.872;25.314;2024-03-22T06:48:37;97331.28;;;14.24;38.96
42771;BME280;28426;42.872;25.314;2024-03-22T06:51:04;97334.44;;;14.48;39.12
42771;BME280;28426;42.872;25.314;2024-03-22T06:53:31;97330.97;;;14.82;38.32
42771;BME280;28426;42.872;25.314;2024-03-22T06:55:57;97333.44;;;15.10;37.71
42771;BME280;28426;42.872;25.314;2024-03-22T06:58:26;97340.44;;;15.32;36.61
42771;BME280;28426;42.872;25.314;2024-03-22T07:00:53;97340.19;;;15.53;36.18
42771;BME280;28426;42.872;25.314;2024-03-22T07:03:20;97346.28;;;15.81;35.64
42771;BME280;28426;42.872;25.314;2024-03-22T07:05:47;97343.97;;;16.05;34.77
42771;BME280;28426;42.872;25.314;2024-03-22T07:08:13;97341.41;;;16.17;33.85
42771;BME280;28426;42.872;25.314;2024-03-22T07:10:40;97338.84;;;16.29;34.11
42771;BME280;28426;42.872;25.314;2024-03-22T07:13:07;97348.03;;;16.53;33.93
42771;BME280;28426;42.872;25.314;2024-03-22T07:15:36;97350.16;;;16.77;33.03
42771;BME280;28426;42.872;25.314;2024-03-22T07:18:04;97337.72;;;17.01;32.67
42771;BME280;28426;42.872;25.314;2024-03-22T07:20:30;97337.31;;;17.23;32.29
42771;BME280;28426;42.872;25.314;2024-03-22T07:22:57;97341.38;;;17.32;30.92
42771;BME280;28426;42.872;25.314;2024-03-22T07:25:24;97345.91;;;17.38;30.52
42771;BME280;28426;42.872;25.314;2024-03-22T07:27:50;97348.31;;;17.47;30.70
42771;BME280;28426;42.872;25.314;2024-03-22T07:30:17;97351.44;;;17.44;30.08
42771;BME280;28426;42.872;25.314;2024-03-22T07:32:47;97351.00;;;17.47;30.19
42771;BME280;28426;42.872;25.314;2024-03-22T07:35:14;97347.72;;;17.63;30.68
42771;BME280;28426;42.872;25.314;2024-03-22T07:37:41;97354.91;;;17.88;29.80
42771;BME280;28426;42.872;25.314;2024-03-22T07:40:08;97353.09;;;18.01;28.72
42771;BME280;28426;42.872;25.314;2024-03-22T07:42:35;97353.09;;;18.01;29.10
42771;BME280;28426;42.872;25.314;2024-03-22T07:45:01;97352.97;;;18.14;28.61
42771;BME280;28426;42.872;25.314;2024-03-22T07:47:29;97356.53;;;18.27;28.13
42771;BME280;28426;42.872;25.314;2024-03-22T07:49:58;97341.31;;;18.45;27.49
42771;BME280;28426;42.872;25.314;2024-03-22T07:52:25;97343.84;;;18.70;26.97
42771;BME280;28426;42.872;25.314;2024-03-22T07:54:52;97344.25;;;18.98;26.72
42771;BME280;28426;42.872;25.314;2024-03-22T07:57:18;97350.41;;;19.29;26.73
42771;BME280;28426;42.872;25.314;2024-03-22T07:59:45;97343.44;;;19.57;25.52
42771;BME280;28426;42.872;25.314;2024-03-22T08:02:11;97350.03;;;19.61;25.04
42771;BME280;28426;42.872;25.314;2024-03-22T08:04:38;97344.50;;;19.68;25.21
42771;BME280;28426;42.872;25.314;2024-03-22T08:07:07;97351.06;;;19.84;25.05
42771;BME280;28426;42.872;25.314;2024-03-22T08:09:34;97341.63;;;19.98;24.86
42771;BME280;28426;42.872;25.314;2024-03-22T08:12:00;97343.91;;;20.19;25.25
42771;BME280;28426;42.872;25.314;2024-03-22T08:14:27;97345.03;;;20.35;24.52
42771;BME280;28426;42.872;25.314;2024-03-22T08:16:53;97341.91;;;20.43;24.24
42771;BME280;28426;42.872;25.314;2024-03-22T08:19:20;97341.44;;;20.46;23.67
42771;BME280;28426;42.872;25.314;2024-03-22T08:21:47;97337.75;;;20.52;23.79
42771;BME280;28426;42.872;25.314;2024-03-22T08:24:16;97331.84;;;20.56;23.64
42771;BME280;28426;42.872;25.314;2024-03-22T08:26:43;97334.16;;;20.64;22.66
42771;BME280;28426;42.872;25.314;2024-03-22T08:29:10;97335.03;;;20.52;22.44
42771;BME280;28426;42.872;25.314;2024-03-22T08:31:37;97327.97;;;20.51;22.06
42771;BME280;28426;42.872;25.314;2024-03-22T08:34:03;97328.66;;;20.59;21.78
42771;BME280;28426;42.872;25.314;2024-03-22T08:36:30;97327.41;;;20.67;21.96
42771;BME280;28426;42.872;25.314;2024-03-22T08:38:56;97330.78;;;20.57;20.95
42771;BME280;28426;42.872;25.314;2024-03-22T08:41:26;97334.19;;;20.35;20.11
42771;BME280;28426;42.872;25.314;2024-03-22T08:43:52;97330.50;;;20.12;20.98
42771;BME280;28426;42.872;25.314;2024-03-22T08:46:19;97336.44;;;19.97;20.70
42771;BME280;28426;42.872;25.314;2024-03-22T08:48:46;97328.94;;;19.75;20.40
42771;BME280;28426;42.872;25.314;2024-03-22T08:51:13;97333.19;;;19.71;20.72
42771;BME280;28426;42.872;25.314;2024-03-22T08:53:39;97336.72;;;19.59;20.21
42771;BME280;28426;42.872;25.314;2024-03-22T08:56:06;97330.91;;;19.27;19.92
42771;BME280;28426;42.872;25.314;2024-03-22T08:58:35;97331.78;;;18.97;19.29
42771;BME280;28426;42.872;25.314;2024-03-22T09:01:02;97327.63;;;18.70;19.70
42771;BME280;28426;42.872;25.314;2024-03-22T09:03:29;97319.69;;;18.45;19.89
42771;BME280;28426;42.872;25.314;2024-03-22T09:05:56;97322.00;;;18.29;19.99
42771;BME280;28426;42.872;25.314;2024-03-22T09:08:22;97319.53;;;18.27;20.36
42771;BME280;28426;42.872;25.314;2024-03-22T09:10:49;97314.41;;;18.38;20.61
42771;BME280;28426;42.872;25.314;2024-03-22T09:13:16;97317.84;;;18.57;20.49
42771;BME280;28426;42.872;25.314;2024-03-22T09:15:45;97315.91;;;18.76;19.41
42771;BME280;28426;42.872;25.314;2024-03-22T09:18:11;97316.38;;;18.85;19.75
42771;BME280;28426;42.872;25.314;2024-03-22T09:20:38;97316.97;;;18.87;19.24
42771;BME280;28426;42.872;25.314;2024-03-22T09:23:05;97314.50;;;18.74;18.51
42771;BME280;28426;42.872;25.314;2024-03-22T09:25:31;97316.22;;;18.56;18.04
42771;BME280;28426;42.872;25.314;2024-03-22T09:27:58;97318.88;;;18.32;18.81
42771;BME280;28426;42.872;25.314;2024-03-22T09:30:25;97307.78;;;18.22;19.24
42771;BME280;28426;42.872;25.314;2024-03-22T09:32:54;97320.56;;;18.14;17.98
42771;BME280;28426;42.872;25.314;2024-03-22T09:35:20;97313.28;;;17.96;17.60
42771;BME280;28426;42.872;25.314;2024-03-22T09:37:47;97308.59;;;17.54;17.96
42771;BME280;28426;42.872;25.314;2024-03-22T09:40:14;97297.13;;;17.21;18.72
42771;BME280;28426;42.872;25.314;2024-03-22T09:42:41;97300.38;;;17.05;19.08
42771;BME280;28426;42.872;25.314;2024-03-22T09:45:09;97300.41;;;16.98;19.57
42771;BME280;28426;42.872;25.314;2024-03-22T09:47:37;97298.28;;;16.81;19.36
42771;BME280;28426;42.872;25.314;2024-03-22T09:50:08;97307.78;;;16.58;19.63
42771;BME280;28426;42.872;25.314;2024-03-22T09:52:36;97304.97;;;16.46;20.57
42771;BME280;28426;42.872;25.314;2024-03-22T09:55:05;97296.06;;;16.46;20.71
42771;BME280;28426;42.872;25.314;2024-03-22T09:57:34;97302.94;;;16.42;20.16
42771;BME280;28426;42.872;25.314;2024-03-22T10:00:02;97299.81;;;16.45;20.37
42771;BME280;28426;42.872;25.314;2024-03-22T10:02:38;97287.59;;;16.42;20.15
42771;BME280;28426;42.872;25.314;2024-03-22T10:05:07;97283.25;;;16.41;20.60
42771;BME280;28426;42.872;25.314;2024-03-22T10:07:34;97276.19;;;16.47;21.00
42771;BME280;28426;42.872;25.314;2024-03-22T10:10:02;97270.91;;;16.33;20.55
42771;BME280;28426;42.872;25.314;2024-03-22T10:12:29;97275.19;;;16.09;20.59
42771;BME280;28426;42.872;25.314;2024-03-22T10:14:56;97275.53;;;15.80;21.32
42771;BME280;28426;42.872;25.314;2024-03-22T10:17:22;97273.38;;;15.50;21.42
42771;BME280;28426;42.872;25.314;2024-03-22T10:19:52;97270.53;;;15.32;22.04
42771;BME280;28426;42.872;25.314;2024-03-22T10:22:21;97269.31;;;15.27;22.43
42771;BME280;28426;42.872;25.314;2024-03-22T10:24:49;97276.97;;;15.24;22.81
42771;BME280;28426;42.872;25.314;2024-03-22T10:27:15;97265.56;;;15.28;22.96
42771;BME280;28426;42.872;25.314;2024-03-22T10:29:42;97266.19;;;15.37;23.13
42771;BME280;28426;42.872;25.314;2024-03-22T10:32:10;97268.81;;;15.51;23.10
42771;BME280;28426;42.872;25.314;2024-03-22T10:34:37;97259.22;;;15.68;23.25
42771;BME280;28426;42.872;25.314;2024-03-22T10:37:04;97261.44;;;15.78;22.89
42771;BME280;28426;42.872;25.314;2024-03-22T10:39:38;97248.00;;;15.78;23.01
42771;BME280;28426;42.872;25.314;2024-03-22T10:42:05;97252.78;;;15.76;22.07
42771;BME280;28426;42.872;25.314;2024-03-22T10:44:38;97246.75;;;15.74;22.96
42771;BME280;28426;42.872;25.314;2024-03-22T10:47:06;97247.59;;;15.75;23.38
42771;BME280;28426;42.872;25.314;2024-03-22T10:49:37;97245.53;;;15.77;23.74
42771;BME280;28426;42.872;25.314;2024-03-22T10:52:05;97242.97;;;15.89;24.67
42771;BME280;28426;42.872;25.314;2024-03-22T10:54:40;97247.00;;;16.12;24.23
42771;BME280;28426;42.872;25.314;2024-03-22T10:57:12;97235.28;;;16.31;24.31
42771;BME280;28426;42.872;25.314;2024-03-22T10:59:41;97241.34;;;16.52;24.43
42771;BME280;28426;42.872;25.314;2024-03-22T11:02:10;97225.28;;;16.64;22.41
42771;BME280;28426;42.872;25.314;2024-03-22T11:04:37;97238.31;;;16.67;23.12
42771;BME280;28426;42.872;25.314;2024-03-22T11:07:04;97227.59;;;16.60;23.23
42771;BME280;28426;42.872;25.314;2024-03-22T11:09:31;97217.91;;;16.53;23.80
42771;BME280;28426;42.872;25.314;2024-03-22T11:12:00;97212.72;;;16.51;24.43
42771;BME280;28426;42.872;25.314;2024-03-22T11:14:27;97224.59;;;16.43;24.24
42771;BME280;28426;42.872;25.314;2024-03-22T11:16:54;97216.59;;;16.37;24.21
42771;BME280;28426;42.872;25.314;2024-03-22T11:19:20;97211.72;;;16.27;24.64
42771;BME280;28426;42.872;25.314;2024-03-22T11:21:47;97211.72;;;16.27;24.98
42771;BME280;28426;42.872;25.314;2024-03-22T11:24:14;97200.09;;;16.26;25.01
42771;BME280;28426;42.872;25.314;2024-03-22T11:26:40;97203.22;;;16.23;25.37
42771;BME280;28426;42.872;25.314;2024-03-22T11:29:09;97205.06;;;16.29;25.49
42771;BME280;28426;42.872;25.314;2024-03-22T11:31:36;97201.31;;;16.30;25.60
42771;BME280;28426;42.872;25.314;2024-03-22T11:34:04;97200.25;;;16.31;25.96
42771;BME280;28426;42.872;25.314;2024-03-22T11:36:30;97197.13;;;16.34;26.08
42771;BME280;28426;42.872;25.314;2024-03-22T11:38:57;97195.03;;;16.37;25.86
42771;BME280;28426;42.872;25.314;2024-03-22T11:41:27;97189.13;;;16.28;25.92
42771;BME280;28426;42.872;25.314;2024-03-22T11:43:55;97196.03;;;16.17;25.97
42771;BME280;28426;42.872;25.314;2024-03-22T11:46:24;97186.16;;;16.04;26.12
42771;BME280;28426;42.872;25.314;2024-03-22T11:48:53;97190.75;;;16.03;26.94
42771;BME280;28426;42.872;25.314;2024-03-22T11:51:20;97189.28;;;16.07;26.71
42771;BME280;28426;42.872;25.314;2024-03-22T11:53:50;97186.59;;;16.07;26.31
42771;BME280;28426;42.872;25.314;2024-03-22T11:56:18;97183.25;;;16.05;26.31
42771;BME280;28426;42.872;25.314;2024-03-22T11:58:46;97180.44;;;15.93;26.45
42771;BME280;28426;42.872;25.314;2024-03-22T12:01:14;97174.50;;;15.85;26.45
42771;BME280;28426;42.872;25.314;2024-03-22T12:03:46;97181.06;;;15.63;26.35
42771;BME280;28426;42.872;25.314;2024-03-22T12:06:13;97185.69;;;15.42;26.55
42771;BME280;28426;42.872;25.314;2024-03-22T12:08:41;97189.50;;;15.21;26.50
42771;BME280;28426;42.872;25.314;2024-03-22T12:11:08;97182.31;;;15.01;27.10
42771;BME280;28426;42.872;25.314;2024-03-22T12:13:35;97174.31;;;14.81;27.36
42771;BME280;28426;42.872;25.314;2024-03-22T12:16:03;97181.56;;;14.74;27.64
42771;BME280;28426;42.872;25.314;2024-03-22T12:18:31;97178.25;;;14.65;27.61
42771;BME280;28426;42.872;25.314;2024-03-22T12:21:00;97172.91;;;14.51;27.56
42771;BME280;28426;42.872;25.314;2024-03-22T12:23:27;97165.72;;;14.38;27.71
42771;BME280;28426;42.872;25.314;2024-03-22T12:25:54;97172.72;;;14.26;28.23
42771;BME280;28426;42.872;25.314;2024-03-22T12:28:21;97170.03;;;14.06;27.98
42771;BME280;28426;42.872;25.314;2024-03-22T12:30:48;97160.94;;;13.80;28.26
42771;BME280;28426;42.872;25.314;2024-03-22T12:33:15;97158.66;;;13.63;28.45
42771;BME280;28426;42.872;25.314;2024-03-22T12:35:42;97149.31;;;13.45;28.80
42771;BME280;28426;42.872;25.314;2024-03-22T12:38:11;97154.44;;;13.40;29.08
42771;BME280;28426;42.872;25.314;2024-03-22T12:40:38;97165.53;;;13.30;29.30
42771;BME280;28426;42.872;25.314;2024-03-22T12:43:05;97146.13;;;13.21;29.69
42771;BME280;28426;42.872;25.314;2024-03-22T12:45:32;97151.91;;;13.18;29.96
42771;BME280;28426;42.872;25.314;2024-03-22T12:47:59;97145.69;;;13.18;30.16
42771;BME280;28426;42.872;25.314;2024-03-22T12:50:26;97144.06;;;13.17;30.24
42771;BME280;28426;42.872;25.314;2024-03-22T12:52:53;97137.03;;;13.09;30.29
42771;BME280;28426;42.872;25.314;2024-03-22T12:55:22;97140.50;;;13.03;30.43